International Virtual Aviation Organisation

Russian Federation and Kazakhstan MCD

 
UMKK 281330Z 02005MPS 9999 BKN021 04/01 Q1022 R06/190095 NOSIG RMK QFE765/1020
QNH:(hPa/inHg/mmHg)1022 / 30.18 / 767
QFE:(hPa/inHg/mmHg)1020 / 30.13 / 765
Temperature4
Dew Point1
Visibility> 10000
Weather
Cloud CoverBKN (2100);
Transition Height1000 m./3400 ft.
Transition LevelFL40
SQUAWK